sensor_id;sensor_type;location;lat;lon;timestamp;P1;durP1;ratioP1;P2;durP2;ratioP2
25069;SDS011;13064;48.162;11.536;2023-04-25T00:01:47;3.15;;;1.80;;
25069;SDS011;13064;48.162;11.536;2023-04-25T00:04:14;2.05;;;1.45;;
25069;SDS011;13064;48.162;11.536;2023-04-25T00:06:42;3.17;;;1.50;;
25069;SDS011;13064;48.162;11.536;2023-04-25T00:09:10;1.88;;;1.52;;
25069;SDS011;13064;48.162;11.536;2023-04-25T00:11:37;2.70;;;1.60;;
25069;SDS011;13064;48.162;11.536;2023-04-25T00:14:05;3.28;;;1.73;;
25069;SDS011;13064;48.162;11.536;2023-04-25T00:16:33;3.60;;;1.90;;
25069;SDS011;13064;48.162;11.536;2023-04-25T00:19:01;2.35;;;1.30;;
25069;SDS011;13064;48.162;11.536;2023-04-25T00:21:29;2.05;;;1.70;;
25069;SDS011;13064;48.162;11.536;2023-04-25T00:23:58;3.17;;;1.60;;
25069;SDS011;13064;48.162;11.536;2023-04-25T00:26:26;2.65;;;1.70;;
25069;SDS011;13064;48.162;11.536;2023-04-25T00:28:54;2.17;;;1.58;;
25069;SDS011;13064;48.162;11.536;2023-04-25T00:31:22;3.28;;;1.48;;
25069;SDS011;13064;48.162;11.536;2023-04-25T00:33:49;3.33;;;1.67;;
25069;SDS011;13064;48.162;11.536;2023-04-25T00:36:18;2.72;;;1.75;;
25069;SDS011;13064;48.162;11.536;2023-04-25T00:38:46;4.90;;;1.77;;
25069;SDS011;13064;48.162;11.536;2023-04-25T00:41:13;1.75;;;1.42;;
25069;SDS011;13064;48.162;11.536;2023-04-25T00:43:41;2.05;;;1.70;;
25069;SDS011;13064;48.162;11.536;2023-04-25T00:46:10;3.00;;;1.70;;
25069;SDS011;13064;48.162;11.536;2023-04-25T00:48:37;4.05;;;1.80;;
25069;SDS011;13064;48.162;11.536;2023-04-25T00:51:05;2.00;;;1.60;;
25069;SDS011;13064;48.162;11.536;2023-04-25T00:53:33;2.97;;;1.48;;
25069;SDS011;13064;48.162;11.536;2023-04-25T00:56:01;3.22;;;1.70;;
25069;SDS011;13064;48.162;11.536;2023-04-25T00:58:28;2.03;;;1.50;;
25069;SDS011;13064;48.162;11.536;2023-04-25T01:00:57;2.20;;;1.65;;
25069;SDS011;13064;48.162;11.536;2023-04-25T01:03:25;1.83;;;1.27;;
25069;SDS011;13064;48.162;11.536;2023-04-25T01:05:55;3.03;;;1.83;;
25069;SDS011;13064;48.162;11.536;2023-04-25T01:08:23;3.88;;;1.67;;
25069;SDS011;13064;48.162;11.536;2023-04-25T01:10:54;2.88;;;1.60;;
25069;SDS011;13064;48.162;11.536;2023-04-25T01:13:22;3.85;;;1.63;;
25069;SDS011;13064;48.162;11.536;2023-04-25T01:15:50;1.60;;;1.50;;
25069;SDS011;13064;48.162;11.536;2023-04-25T01:18:18;1.90;;;1.50;;
25069;SDS011;13064;48.162;11.536;2023-04-25T01:20:47;3.00;;;1.70;;
25069;SDS011;13064;48.162;11.536;2023-04-25T01:23:18;6.07;;;1.88;;
25069;SDS011;13064;48.162;11.536;2023-04-25T01:25:47;2.88;;;1.63;;
25069;SDS011;13064;48.162;11.536;2023-04-25T01:28:15;3.63;;;1.75;;
25069;SDS011;13064;48.162;11.536;2023-04-25T01:30:43;1.95;;;1.40;;
25069;SDS011;13064;48.162;11.536;2023-04-25T01:33:12;2.33;;;1.70;;
25069;SDS011;13064;48.162;11.536;2023-04-25T01:35:41;2.50;;;1.60;;
25069;SDS011;13064;48.162;11.536;2023-04-25T01:38:08;2.53;;;1.60;;
25069;SDS011;13064;48.162;11.536;2023-04-25T01:40:37;3.83;;;1.90;;
25069;SDS011;13064;48.162;11.536;2023-04-25T01:43:07;3.13;;;1.65;;
25069;SDS011;13064;48.162;11.536;2023-04-25T01:45:37;2.00;;;1.73;;
25069;SDS011;13064;48.162;11.536;2023-04-25T01:48:09;5.63;;;1.92;;
25069;SDS011;13064;48.162;11.536;2023-04-25T01:50:37;3.03;;;1.80;;
25069;SDS011;13064;48.162;11.536;2023-04-25T01:53:06;2.05;;;1.80;;
25069;SDS011;13064;48.162;11.536;2023-04-25T01:55:33;3.05;;;1.83;;
25069;SDS011;13064;48.162;11.536;2023-04-25T01:58:06;2.17;;;1.70;;
25069;SDS011;13064;48.162;11.536;2023-04-25T02:00:57;1.98;;;1.60;;
25069;SDS011;13064;48.162;11.536;2023-04-25T02:03:31;3.13;;;1.70;;
25069;SDS011;13064;48.162;11.536;2023-04-25T02:06:00;2.03;;;1.65;;
25069;SDS011;13064;48.162;11.536;2023-04-25T02:08:32;2.30;;;1.60;;
25069;SDS011;13064;48.162;11.536;2023-04-25T02:11:00;3.00;;;1.50;;
25069;SDS011;13064;48.162;11.536;2023-04-25T02:13:36;1.98;;;1.73;;
25069;SDS011;13064;48.162;11.536;2023-04-25T02:16:22;4.32;;;1.63;;
25069;SDS011;13064;48.162;11.536;2023-04-25T02:18:52;2.60;;;1.73;;
25069;SDS011;13064;48.162;11.536;2023-04-25T02:21:19;2.60;;;1.70;;
25069;SDS011;13064;48.162;11.536;2023-04-25T02:23:47;3.78;;;1.75;;
25069;SDS011;13064;48.162;11.536;2023-04-25T02:26:16;2.60;;;1.83;;
25069;SDS011;13064;48.162;11.536;2023-04-25T02:28:44;2.90;;;1.67;;
25069;SDS011;13064;48.162;11.536;2023-04-25T02:31:11;3.53;;;1.80;;
25069;SDS011;13064;48.162;11.536;2023-04-25T02:33:39;3.10;;;1.77;;
25069;SDS011;13064;48.162;11.536;2023-04-25T02:36:08;2.22;;;1.35;;
25069;SDS011;13064;48.162;11.536;2023-04-25T02:38:35;3.88;;;1.80;;
25069;SDS011;13064;48.162;11.536;2023-04-25T02:41:05;3.55;;;1.90;;
25069;SDS011;13064;48.162;11.536;2023-04-25T02:43:32;3.30;;;1.83;;
25069;SDS011;13064;48.162;11.536;2023-04-25T02:46:00;2.65;;;1.80;;
25069;SDS011;13064;48.162;11.536;2023-04-25T02:48:28;3.78;;;1.60;;
25069;SDS011;13064;48.162;11.536;2023-04-25T02:50:55;2.58;;;1.65;;
25069;SDS011;13064;48.162;11.536;2023-04-25T02:53:23;5.07;;;1.70;;
25069;SDS011;13064;48.162;11.536;2023-04-25T02:55:52;2.38;;;1.70;;
25069;SDS011;13064;48.162;11.536;2023-04-25T02:58:21;2.03;;;1.80;;
25069;SDS011;13064;48.162;11.536;2023-04-25T03:00:51;3.83;;;1.80;;
25069;SDS011;13064;48.162;11.536;2023-04-25T03:03:18;1.90;;;1.63;;
25069;SDS011;13064;48.162;11.536;2023-04-25T03:05:49;6.32;;;2.10;;
25069;SDS011;13064;48.162;11.536;2023-04-25T03:08:22;3.38;;;1.80;;
25069;SDS011;13064;48.162;11.536;2023-04-25T03:10:49;4.82;;;1.90;;
25069;SDS011;13064;48.162;11.536;2023-04-25T03:13:18;5.38;;;1.75;;
25069;SDS011;13064;48.162;11.536;2023-04-25T03:15:46;2.33;;;1.67;;
25069;SDS011;13064;48.162;11.536;2023-04-25T03:18:14;4.07;;;1.80;;
25069;SDS011;13064;48.162;11.536;2023-04-25T03:20:41;2.97;;;2.00;;
25069;SDS011;13064;48.162;11.536;2023-04-25T03:23:09;3.92;;;1.90;;
25069;SDS011;13064;48.162;11.536;2023-04-25T03:25:39;6.50;;;1.67;;
25069;SDS011;13064;48.162;11.536;2023-04-25T03:28:07;2.55;;;1.70;;
25069;SDS011;13064;48.162;11.536;2023-04-25T03:30:35;3.15;;;1.92;;
25069;SDS011;13064;48.162;11.536;2023-04-25T03:33:02;3.40;;;1.85;;
25069;SDS011;13064;48.162;11.536;2023-04-25T03:35:30;4.60;;;1.83;;
25069;SDS011;13064;48.162;11.536;2023-04-25T03:37:58;3.13;;;1.40;;
25069;SDS011;13064;48.162;11.536;2023-04-25T03:40:29;2.88;;;1.50;;
25069;SDS011;13064;48.162;11.536;2023-04-25T03:43:08;2.95;;;1.60;;
25069;SDS011;13064;48.162;11.536;2023-04-25T03:45:37;3.55;;;1.50;;
25069;SDS011;13064;48.162;11.536;2023-04-25T03:48:05;1.55;;;1.23;;
25069;SDS011;13064;48.162;11.536;2023-04-25T03:50:33;2.35;;;1.50;;
25069;SDS011;13064;48.162;11.536;2023-04-25T03:53:00;3.45;;;1.30;;
25069;SDS011;13064;48.162;11.536;2023-04-25T03:55:34;4.10;;;1.50;;
25069;SDS011;13064;48.162;11.536;2023-04-25T03:58:02;1.52;;;1.20;;
25069;SDS011;13064;48.162;11.536;2023-04-25T04:00:30;1.70;;;1.10;;
25069;SDS011;13064;48.162;11.536;2023-04-25T04:02:57;5.78;;;1.60;;
25069;SDS011;13064;48.162;11.536;2023-04-25T04:05:25;1.63;;;1.40;;
25069;SDS011;13064;48.162;11.536;2023-04-25T04:07:55;3.00;;;1.30;;
25069;SDS011;13064;48.162;11.536;2023-04-25T04:10:23;2.85;;;1.48;;
25069;SDS011;13064;48.162;11.536;2023-04-25T04:12:54;2.53;;;1.30;;
25069;SDS011;13064;48.162;11.536;2023-04-25T04:15:22;1.95;;;1.20;;
25069;SDS011;13064;48.162;11.536;2023-04-25T04:17:49;2.80;;;1.30;;
25069;SDS011;13064;48.162;11.536;2023-04-25T04:20:18;3.58;;;1.40;;
25069;SDS011;13064;48.162;11.536;2023-04-25T04:22:46;1.88;;;1.38;;
25069;SDS011;13064;48.162;11.536;2023-04-25T04:25:14;2.90;;;1.10;;
25069;SDS011;13064;48.162;11.536;2023-04-25T04:28:02;1.67;;;1.10;;
25069;SDS011;13064;48.162;11.536;2023-04-25T04:30:54;3.05;;;1.33;;
25069;SDS011;13064;48.162;11.536;2023-04-25T04:33:22;2.75;;;1.30;;
25069;SDS011;13064;48.162;11.536;2023-04-25T04:35:55;21.15;;;2.35;;
25069;SDS011;13064;48.162;11.536;2023-04-25T04:38:23;67.53;;;4.85;;
25069;SDS011;13064;48.162;11.536;2023-04-25T04:40:54;3.58;;;1.23;;
25069;SDS011;13064;48.162;11.536;2023-04-25T04:43:35;3.50;;;1.25;;
25069;SDS011;13064;48.162;11.536;2023-04-25T04:46:21;1.92;;;1.35;;
25069;SDS011;13064;48.162;11.536;2023-04-25T04:49:09;1.90;;;1.48;;
25069;SDS011;13064;48.162;11.536;2023-04-25T04:51:53;2.65;;;1.30;;
25069;SDS011;13064;48.162;11.536;2023-04-25T04:54:36;1.67;;;1.23;;
25069;SDS011;13064;48.162;11.536;2023-04-25T04:57:17;2.03;;;1.50;;
25069;SDS011;13064;48.162;11.536;2023-04-25T04:59:55;2.45;;;1.73;;
25069;SDS011;13064;48.162;11.536;2023-04-25T05:02:42;1.92;;;1.40;;
25069;SDS011;13064;48.162;11.536;2023-04-25T05:05:33;2.00;;;1.48;;
25069;SDS011;13064;48.162;11.536;2023-04-25T05:08:14;1.92;;;1.55;;
25069;SDS011;13064;48.162;11.536;2023-04-25T05:10:53;1.98;;;1.52;;
25069;SDS011;13064;48.162;11.536;2023-04-25T05:13:33;5.18;;;1.60;;
25069;SDS011;13064;48.162;11.536;2023-04-25T05:16:11;4.80;;;1.70;;
25069;SDS011;13064;48.162;11.536;2023-04-25T05:18:51;2.92;;;1.40;;
25069;SDS011;13064;48.162;11.536;2023-04-25T05:21:48;2.28;;;1.60;;
25069;SDS011;13064;48.162;11.536;2023-04-25T05:24:42;3.28;;;1.70;;
25069;SDS011;13064;48.162;11.536;2023-04-25T05:27:28;3.33;;;1.67;;
25069;SDS011;13064;48.162;11.536;2023-04-25T05:30:18;3.80;;;1.60;;
25069;SDS011;13064;48.162;11.536;2023-04-25T05:32:56;3.58;;;1.80;;
25069;SDS011;13064;48.162;11.536;2023-04-25T05:35:24;3.65;;;1.85;;
25069;SDS011;13064;48.162;11.536;2023-04-25T05:37:52;2.67;;;1.50;;
25069;SDS011;13064;48.162;11.536;2023-04-25T05:40:30;2.55;;;1.90;;
25069;SDS011;13064;48.162;11.536;2023-04-25T05:43:18;2.28;;;1.80;;
25069;SDS011;13064;48.162;11.536;2023-04-25T05:45:58;2.85;;;1.63;;
25069;SDS011;13064;48.162;11.536;2023-04-25T05:48:39;2.33;;;1.83;;
25069;SDS011;13064;48.162;11.536;2023-04-25T05:51:25;4.57;;;2.10;;
25069;SDS011;13064;48.162;11.536;2023-04-25T05:54:16;2.60;;;1.90;;
25069;SDS011;13064;48.162;11.536;2023-04-25T05:56:44;4.60;;;1.90;;
25069;SDS011;13064;48.162;11.536;2023-04-25T05:59:12;3.20;;;1.70;;
25069;SDS011;13064;48.162;11.536;2023-04-25T06:01:40;3.30;;;1.55;;
25069;SDS011;13064;48.162;11.536;2023-04-25T06:04:07;2.95;;;1.58;;
25069;SDS011;13064;48.162;11.536;2023-04-25T06:06:36;3.78;;;1.75;;
25069;SDS011;13064;48.162;11.536;2023-04-25T06:09:04;2.70;;;1.90;;
25069;SDS011;13064;48.162;11.536;2023-04-25T06:11:31;3.70;;;2.00;;
25069;SDS011;13064;48.162;11.536;2023-04-25T06:14:00;4.80;;;2.28;;
25069;SDS011;13064;48.162;11.536;2023-04-25T06:16:28;5.63;;;2.42;;
25069;SDS011;13064;48.162;11.536;2023-04-25T06:18:55;3.92;;;2.20;;
25069;SDS011;13064;48.162;11.536;2023-04-25T06:21:23;3.67;;;1.90;;
25069;SDS011;13064;48.162;11.536;2023-04-25T06:23:51;4.00;;;1.90;;
25069;SDS011;13064;48.162;11.536;2023-04-25T06:26:22;2.03;;;1.83;;
25069;SDS011;13064;48.162;11.536;2023-04-25T06:28:50;5.05;;;2.05;;
25069;SDS011;13064;48.162;11.536;2023-04-25T06:31:17;2.35;;;1.70;;
25069;SDS011;13064;48.162;11.536;2023-04-25T06:33:46;7.40;;;2.95;;
25069;SDS011;13064;48.162;11.536;2023-04-25T06:36:15;3.83;;;1.98;;
25069;SDS011;13064;48.162;11.536;2023-04-25T06:38:45;3.95;;;2.28;;
25069;SDS011;13064;48.162;11.536;2023-04-25T06:41:13;3.70;;;2.28;;
25069;SDS011;13064;48.162;11.536;2023-04-25T06:43:41;2.92;;;2.22;;
25069;SDS011;13064;48.162;11.536;2023-04-25T06:46:29;5.03;;;2.60;;
25069;SDS011;13064;48.162;11.536;2023-04-25T06:48:58;7.05;;;2.85;;
25069;SDS011;13064;48.162;11.536;2023-04-25T06:51:26;4.38;;;3.10;;
25069;SDS011;13064;48.162;11.536;2023-04-25T06:53:56;5.03;;;2.45;;
25069;SDS011;13064;48.162;11.536;2023-04-25T06:56:43;4.43;;;2.83;;
25069;SDS011;13064;48.162;11.536;2023-04-25T06:59:13;5.50;;;2.90;;
25069;SDS011;13064;48.162;11.536;2023-04-25T07:01:42;5.88;;;2.30;;
25069;SDS011;13064;48.162;11.536;2023-04-25T07:04:24;4.30;;;2.83;;
25069;SDS011;13064;48.162;11.536;2023-04-25T07:06:55;6.82;;;2.60;;
25069;SDS011;13064;48.162;11.536;2023-04-25T07:09:32;4.38;;;2.80;;
25069;SDS011;13064;48.162;11.536;2023-04-25T07:12:00;3.30;;;2.35;;
25069;SDS011;13064;48.162;11.536;2023-04-25T07:14:28;3.15;;;2.22;;
25069;SDS011;13064;48.162;11.536;2023-04-25T07:16:58;6.80;;;2.60;;
25069;SDS011;13064;48.162;11.536;2023-04-25T07:19:28;4.75;;;2.03;;
25069;SDS011;13064;48.162;11.536;2023-04-25T07:21:59;5.25;;;2.50;;
25069;SDS011;13064;48.162;11.536;2023-04-25T07:24:27;4.72;;;2.60;;
25069;SDS011;13064;48.162;11.536;2023-04-25T07:26:56;3.95;;;2.30;;
25069;SDS011;13064;48.162;11.536;2023-04-25T07:29:30;3.90;;;2.20;;
25069;SDS011;13064;48.162;11.536;2023-04-25T07:31:59;2.95;;;2.10;;
25069;SDS011;13064;48.162;11.536;2023-04-25T07:34:27;3.83;;;1.75;;
25069;SDS011;13064;48.162;11.536;2023-04-25T07:36:56;3.03;;;1.73;;
25069;SDS011;13064;48.162;11.536;2023-04-25T07:39:31;5.53;;;1.85;;
25069;SDS011;13064;48.162;11.536;2023-04-25T07:41:59;5.47;;;2.08;;
25069;SDS011;13064;48.162;11.536;2023-04-25T07:44:29;3.95;;;1.98;;
25069;SDS011;13064;48.162;11.536;2023-04-25T07:46:57;4.47;;;2.25;;
25069;SDS011;13064;48.162;11.536;2023-04-25T07:49:24;4.75;;;2.10;;
25069;SDS011;13064;48.162;11.536;2023-04-25T07:51:53;5.15;;;2.17;;
25069;SDS011;13064;48.162;11.536;2023-04-25T07:54:20;4.32;;;2.50;;
25069;SDS011;13064;48.162;11.536;2023-04-25T07:56:55;6.75;;;2.45;;
25069;SDS011;13064;48.162;11.536;2023-04-25T07:59:27;8.15;;;2.33;;
25069;SDS011;13064;48.162;11.536;2023-04-25T08:01:57;6.95;;;2.45;;
25069;SDS011;13064;48.162;11.536;2023-04-25T08:04:25;7.20;;;2.50;;
25069;SDS011;13064;48.162;11.536;2023-04-25T08:06:58;5.55;;;2.20;;
25069;SDS011;13064;48.162;11.536;2023-04-25T08:09:31;3.95;;;2.10;;
25069;SDS011;13064;48.162;11.536;2023-04-25T08:12:06;3.72;;;2.20;;
25069;SDS011;13064;48.162;11.536;2023-04-25T08:14:35;3.80;;;2.10;;
25069;SDS011;13064;48.162;11.536;2023-04-25T08:17:04;4.65;;;2.42;;
25069;SDS011;13064;48.162;11.536;2023-04-25T08:19:35;4.10;;;2.20;;
25069;SDS011;13064;48.162;11.536;2023-04-25T08:22:02;6.70;;;2.33;;
25069;SDS011;13064;48.162;11.536;2023-04-25T08:24:41;4.47;;;1.83;;
25069;SDS011;13064;48.162;11.536;2023-04-25T08:27:09;3.17;;;2.22;;
25069;SDS011;13064;48.162;11.536;2023-04-25T08:29:37;4.38;;;2.00;;
25069;SDS011;13064;48.162;11.536;2023-04-25T08:32:05;4.32;;;2.20;;
25069;SDS011;13064;48.162;11.536;2023-04-25T08:34:36;3.65;;;2.17;;
25069;SDS011;13064;48.162;11.536;2023-04-25T08:37:06;3.67;;;2.13;;
25069;SDS011;13064;48.162;11.536;2023-04-25T08:39:49;3.00;;;1.73;;
25069;SDS011;13064;48.162;11.536;2023-04-25T08:42:41;2.80;;;1.50;;
25069;SDS011;13064;48.162;11.536;2023-04-25T08:45:09;2.25;;;1.52;;
25069;SDS011;13064;48.162;11.536;2023-04-25T08:47:38;4.10;;;1.75;;
25069;SDS011;13064;48.162;11.536;2023-04-25T08:50:07;2.03;;;1.50;;
25069;SDS011;13064;48.162;11.536;2023-04-25T08:52:37;2.63;;;1.40;;
25069;SDS011;13064;48.162;11.536;2023-04-25T08:55:05;3.28;;;1.40;;
25069;SDS011;13064;48.162;11.536;2023-04-25T08:57:35;3.58;;;1.65;;
25069;SDS011;13064;48.162;11.536;2023-04-25T09:00:03;2.85;;;1.70;;
25069;SDS011;13064;48.162;11.536;2023-04-25T09:05:02;1.95;;;1.40;;
25069;SDS011;13064;48.162;11.536;2023-04-25T09:07:30;1.73;;;1.15;;
25069;SDS011;13064;48.162;11.536;2023-04-25T09:09:58;2.45;;;1.30;;
25069;SDS011;13064;48.162;11.536;2023-04-25T09:12:29;3.22;;;1.50;;
25069;SDS011;13064;48.162;11.536;2023-04-25T09:15:02;2.28;;;1.30;;
25069;SDS011;13064;48.162;11.536;2023-04-25T09:17:45;1.92;;;1.23;;
25069;SDS011;13064;48.162;11.536;2023-04-25T09:20:13;2.33;;;1.50;;
25069;SDS011;13064;48.162;11.536;2023-04-25T09:22:41;2.75;;;1.15;;
25069;SDS011;13064;48.162;11.536;2023-04-25T09:25:10;2.42;;;1.30;;
25069;SDS011;13064;48.162;11.536;2023-04-25T09:27:51;3.42;;;1.08;;
25069;SDS011;13064;48.162;11.536;2023-04-25T09:30:31;3.65;;;1.20;;
25069;SDS011;13064;48.162;11.536;2023-04-25T09:33:20;2.35;;;1.17;;
25069;SDS011;13064;48.162;11.536;2023-04-25T09:35:54;2.60;;;1.00;;
25069;SDS011;13064;48.162;11.536;2023-04-25T09:38:46;1.65;;;1.10;;
25069;SDS011;13064;48.162;11.536;2023-04-25T09:41:23;3.05;;;1.48;;
25069;SDS011;13064;48.162;11.536;2023-04-25T09:43:56;2.15;;;1.48;;
25069;SDS011;13064;48.162;11.536;2023-04-25T09:46:34;1.95;;;1.10;;
25069;SDS011;13064;48.162;11.536;2023-04-25T09:49:15;2.50;;;0.93;;
25069;SDS011;13064;48.162;11.536;2023-04-25T09:52:05;2.78;;;1.20;;
25069;SDS011;13064;48.162;11.536;2023-04-25T09:54:39;2.42;;;1.23;;
25069;SDS011;13064;48.162;11.536;2023-04-25T09:59:39;3.13;;;1.30;;
25069;SDS011;13064;48.162;11.536;2023-04-25T10:02:07;4.13;;;1.20;;
25069;SDS011;13064;48.162;11.536;2023-04-25T10:04:37;2.42;;;1.10;;
25069;SDS011;13064;48.162;11.536;2023-04-25T10:07:19;1.67;;;1.13;;
25069;SDS011;13064;48.162;11.536;2023-04-25T10:10:02;3.13;;;1.30;;
25069;SDS011;13064;48.162;11.536;2023-04-25T10:12:30;1.73;;;1.10;;
25069;SDS011;13064;48.162;11.536;2023-04-25T10:14:59;2.13;;;1.35;;
25069;SDS011;13064;48.162;11.536;2023-04-25T10:17:27;3.00;;;1.38;;
25069;SDS011;13064;48.162;11.536;2023-04-25T10:19:58;3.63;;;1.20;;
25069;SDS011;13064;48.162;11.536;2023-04-25T10:22:37;1.98;;;1.25;;
25069;SDS011;13064;48.162;11.536;2023-04-25T10:25:05;2.58;;;1.35;;
25069;SDS011;13064;48.162;11.536;2023-04-25T10:27:35;2.58;;;1.15;;
25069;SDS011;13064;48.162;11.536;2023-04-25T10:30:04;3.03;;;1.17;;
25069;SDS011;13064;48.162;11.536;2023-04-25T10:32:33;1.85;;;1.00;;
25069;SDS011;13064;48.162;11.536;2023-04-25T10:35:15;2.47;;;1.17;;
25069;SDS011;13064;48.162;11.536;2023-04-25T10:40:25;1.83;;;1.20;;
25069;SDS011;13064;48.162;11.536;2023-04-25T10:42:54;1.23;;;0.95;;
25069;SDS011;13064;48.162;11.536;2023-04-25T10:45:22;1.85;;;0.85;;
25069;SDS011;13064;48.162;11.536;2023-04-25T10:47:51;0.80;;;0.70;;
25069;SDS011;13064;48.162;11.536;2023-04-25T10:50:19;1.45;;;1.00;;
25069;SDS011;13064;48.162;11.536;2023-04-25T10:52:46;1.20;;;0.80;;
25069;SDS011;13064;48.162;11.536;2023-04-25T10:55:14;2.42;;;0.85;;
25069;SDS011;13064;48.162;11.536;2023-04-25T10:57:43;1.27;;;1.00;;
25069;SDS011;13064;48.162;11.536;2023-04-25T11:05:28;1.60;;;0.95;;
25069;SDS011;13064;48.162;11.536;2023-04-25T11:07:58;2.22;;;1.10;;
25069;SDS011;13064;48.162;11.536;2023-04-25T11:10:33;1.35;;;0.98;;
25069;SDS011;13064;48.162;11.536;2023-04-25T11:13:04;2.03;;;0.80;;
25069;SDS011;13064;48.162;11.536;2023-04-25T11:15:32;2.72;;;1.10;;
25069;SDS011;13064;48.162;11.536;2023-04-25T11:18:00;2.13;;;0.95;;
25069;SDS011;13064;48.162;11.536;2023-04-25T11:20:28;1.55;;;0.90;;
25069;SDS011;13064;48.162;11.536;2023-04-25T11:22:59;2.15;;;0.98;;
25069;SDS011;13064;48.162;11.536;2023-04-25T11:25:26;2.33;;;1.10;;
25069;SDS011;13064;48.162;11.536;2023-04-25T11:27:55;3.33;;;1.05;;
25069;SDS011;13064;48.162;11.536;2023-04-25T11:30:24;1.35;;;1.15;;
25069;SDS011;13064;48.162;11.536;2023-04-25T11:32:52;1.75;;;0.80;;
25069;SDS011;13064;48.162;11.536;2023-04-25T11:35:20;1.42;;;0.90;;
25069;SDS011;13064;48.162;11.536;2023-04-25T11:37:50;2.47;;;1.00;;
25069;SDS011;13064;48.162;11.536;2023-04-25T11:40:17;2.05;;;1.10;;
25069;SDS011;13064;48.162;11.536;2023-04-25T11:42:45;2.88;;;1.25;;
25069;SDS011;13064;48.162;11.536;2023-04-25T11:45:14;4.40;;;1.20;;
25069;SDS011;13064;48.162;11.536;2023-04-25T11:47:41;2.90;;;1.52;;
25069;SDS011;13064;48.162;11.536;2023-04-25T11:50:09;1.20;;;1.10;;
25069;SDS011;13064;48.162;11.536;2023-04-25T11:52:44;1.95;;;1.20;;
25069;SDS011;13064;48.162;11.536;2023-04-25T11:55:13;2.53;;;1.30;;
25069;SDS011;13064;48.162;11.536;2023-04-25T11:57:41;1.50;;;0.80;;
25069;SDS011;13064;48.162;11.536;2023-04-25T12:00:12;0.90;;;0.90;;
25069;SDS011;13064;48.162;11.536;2023-04-25T12:02:45;1.48;;;1.00;;
25069;SDS011;13064;48.162;11.536;2023-04-25T12:05:14;2.13;;;0.90;;
25069;SDS011;13064;48.162;11.536;2023-04-25T12:07:57;1.63;;;1.00;;
25069;SDS011;13064;48.162;11.536;2023-04-25T12:10:25;1.75;;;0.90;;
25069;SDS011;13064;48.162;11.536;2023-04-25T12:12:52;1.40;;;1.08;;
25069;SDS011;13064;48.162;11.536;2023-04-25T12:15:24;0.95;;;0.80;;
25069;SDS011;13064;48.162;11.536;2023-04-25T12:17:52;1.33;;;0.70;;
25069;SDS011;13064;48.162;11.536;2023-04-25T12:20:21;0.82;;;0.65;;
25069;SDS011;13064;48.162;11.536;2023-04-25T12:22:51;0.73;;;0.70;;
25069;SDS011;13064;48.162;11.536;2023-04-25T12:25:36;1.67;;;0.80;;
25069;SDS011;13064;48.162;11.536;2023-04-25T12:30:52;1.92;;;0.80;;
25069;SDS011;13064;48.162;11.536;2023-04-25T12:33:20;0.82;;;0.82;;
25069;SDS011;13064;48.162;11.536;2023-04-25T12:35:48;2.20;;;1.20;;
25069;SDS011;13064;48.162;11.536;2023-04-25T12:38:22;1.00;;;0.90;;
25069;SDS011;13064;48.162;11.536;2023-04-25T12:40:50;1.17;;;1.08;;
25069;SDS011;13064;48.162;11.536;2023-04-25T12:43:18;2.38;;;1.05;;
25069;SDS011;13064;48.162;11.536;2023-04-25T12:45:49;1.13;;;1.02;;
25069;SDS011;13064;48.162;11.536;2023-04-25T12:48:17;1.38;;;1.10;;
25069;SDS011;13064;48.162;11.536;2023-04-25T12:50:45;0.70;;;0.70;;
25069;SDS011;13064;48.162;11.536;2023-04-25T12:53:16;2.38;;;1.20;;
25069;SDS011;13064;48.162;11.536;2023-04-25T12:55:43;1.02;;;0.93;;
25069;SDS011;13064;48.162;11.536;2023-04-25T12:58:16;1.15;;;0.77;;
25069;SDS011;13064;48.162;11.536;2023-04-25T13:00:44;1.23;;;0.88;;
25069;SDS011;13064;48.162;11.536;2023-04-25T13:03:12;1.13;;;0.90;;
25069;SDS011;13064;48.162;11.536;2023-04-25T13:05:40;2.10;;;0.90;;
25069;SDS011;13064;48.162;11.536;2023-04-25T13:08:08;1.77;;;0.90;;
25069;SDS011;13064;48.162;11.536;2023-04-25T13:10:36;1.27;;;0.90;;
25069;SDS011;13064;48.162;11.536;2023-04-25T13:13:05;1.45;;;1.00;;
25069;SDS011;13064;48.162;11.536;2023-04-25T13:15:33;1.13;;;1.02;;
25069;SDS011;13064;48.162;11.536;2023-04-25T13:18:00;0.85;;;0.85;;
25069;SDS011;13064;48.162;11.536;2023-04-25T13:20:28;2.35;;;1.10;;
25069;SDS011;13064;48.162;11.536;2023-04-25T13:22:56;1.73;;;1.13;;
25069;SDS011;13064;48.162;11.536;2023-04-25T13:25:26;1.90;;;0.95;;
25069;SDS011;13064;48.162;11.536;2023-04-25T13:27:53;1.25;;;1.15;;
25069;SDS011;13064;48.162;11.536;2023-04-25T13:30:21;2.03;;;1.00;;
25069;SDS011;13064;48.162;11.536;2023-04-25T13:32:48;1.20;;;1.10;;
25069;SDS011;13064;48.162;11.536;2023-04-25T13:35:16;1.35;;;1.10;;
25069;SDS011;13064;48.162;11.536;2023-04-25T13:37:44;1.83;;;1.13;;
25069;SDS011;13064;48.162;11.536;2023-04-25T13:40:12;1.55;;;1.08;;
25069;SDS011;13064;48.162;11.536;2023-04-25T13:42:39;1.23;;;1.00;;
25069;SDS011;13064;48.162;11.536;2023-04-25T13:45:07;2.08;;;1.05;;
25069;SDS011;13064;48.162;11.536;2023-04-25T13:47:35;1.73;;;1.00;;
25069;SDS011;13064;48.162;11.536;2023-04-25T13:50:06;1.05;;;0.93;;
25069;SDS011;13064;48.162;11.536;2023-04-25T13:52:34;0.88;;;0.80;;
25069;SDS011;13064;48.162;11.536;2023-04-25T13:55:02;1.23;;;1.13;;
25069;SDS011;13064;48.162;11.536;2023-04-25T13:57:30;2.03;;;1.30;;
25069;SDS011;13064;48.162;11.536;2023-04-25T13:59:58;1.58;;;1.13;;
25069;SDS011;13064;48.162;11.536;2023-04-25T14:02:25;2.05;;;1.10;;
25069;SDS011;13064;48.162;11.536;2023-04-25T14:04:53;2.10;;;1.27;;
25069;SDS011;13064;48.162;11.536;2023-04-25T14:07:21;1.50;;;1.30;;
25069;SDS011;13064;48.162;11.536;2023-04-25T14:09:49;1.30;;;1.20;;
25069;SDS011;13064;48.162;11.536;2023-04-25T14:12:16;1.75;;;1.50;;
25069;SDS011;13064;48.162;11.536;2023-04-25T14:14:44;2.03;;;1.40;;
25069;SDS011;13064;48.162;11.536;2023-04-25T14:17:12;1.20;;;1.10;;
25069;SDS011;13064;48.162;11.536;2023-04-25T14:19:40;1.92;;;1.45;;
25069;SDS011;13064;48.162;11.536;2023-04-25T14:24:39;2.45;;;1.88;;
25069;SDS011;13064;48.162;11.536;2023-04-25T14:27:07;3.47;;;1.45;;
25069;SDS011;13064;48.162;11.536;2023-04-25T14:29:34;3.03;;;1.77;;
25069;SDS011;13064;48.162;11.536;2023-04-25T14:32:02;2.40;;;1.17;;
25069;SDS011;13064;48.162;11.536;2023-04-25T14:34:31;1.10;;;0.93;;
25069;SDS011;13064;48.162;11.536;2023-04-25T14:36:59;3.92;;;1.30;;
25069;SDS011;13064;48.162;11.536;2023-04-25T14:39:27;1.98;;;1.15;;
25069;SDS011;13064;48.162;11.536;2023-04-25T14:41:54;2.47;;;1.30;;
25069;SDS011;13064;48.162;11.536;2023-04-25T14:44:22;2.33;;;1.40;;
25069;SDS011;13064;48.162;11.536;2023-04-25T14:46:50;2.70;;;1.13;;
25069;SDS011;13064;48.162;11.536;2023-04-25T14:49:18;1.35;;;1.10;;
25069;SDS011;13064;48.162;11.536;2023-04-25T14:51:45;3.88;;;0.80;;
25069;SDS011;13064;48.162;11.536;2023-04-25T14:54:16;0.95;;;0.80;;
25069;SDS011;13064;48.162;11.536;2023-04-25T14:56:43;0.85;;;0.73;;
25069;SDS011;13064;48.162;11.536;2023-04-25T14:59:11;0.47;;;0.40;;
25069;SDS011;13064;48.162;11.536;2023-04-25T15:01:39;0.65;;;0.60;;
25069;SDS011;13064;48.162;11.536;2023-04-25T15:04:06;1.02;;;0.50;;
25069;SDS011;13064;48.162;11.536;2023-04-25T15:06:34;0.50;;;0.50;;
25069;SDS011;13064;48.162;11.536;2023-04-25T15:09:02;1.08;;;0.80;;
25069;SDS011;13064;48.162;11.536;2023-04-25T15:11:30;1.55;;;1.00;;
25069;SDS011;13064;48.162;11.536;2023-04-25T15:13:58;0.65;;;0.65;;